sensor_id;sensor_type;location;lat;lon;timestamp;pressure;altitude;pressure_sealevel;temperature;humidity
68594;BME280;55563;52.416;13.548;2023-05-23T00:00:36;100737.59;;;16.39;96.30
68594;BME280;55563;52.416;13.548;2023-05-23T00:02:39;100741.50;;;16.41;96.32
68594;BME280;55563;52.416;13.548;2023-05-23T00:04:41;100745.34;;;16.35;97.03
68594;BME280;55563;52.416;13.548;2023-05-23T00:06:42;100738.66;;;16.38;96.48
68594;BME280;55563;52.416;13.548;2023-05-23T00:08:48;100739.25;;;16.35;96.97
68594;BME280;55563;52.416;13.548;2023-05-23T00:10:50;100748.09;;;16.30;98.01
68594;BME280;55563;52.416;13.548;2023-05-23T00:12:51;100746.22;;;16.31;98.78
68594;BME280;55563;52.416;13.548;2023-05-23T00:14:54;100748.84;;;16.31;98.95
68594;BME280;55563;52.416;13.548;2023-05-23T00:16:57;100747.31;;;16.30;98.71
68594;BME280;55563;52.416;13.548;2023-05-23T00:18:58;100735.41;;;16.27;99.06
68594;BME280;55563;52.416;13.548;2023-05-23T00:21:01;100740.50;;;16.24;99.87
68594;BME280;55563;52.416;13.548;2023-05-23T00:23:04;100730.97;;;16.23;100.00
68594;BME280;55563;52.416;13.548;2023-05-23T00:25:07;100739.53;;;16.20;100.00
68594;BME280;55563;52.416;13.548;2023-05-23T00:27:10;100734.03;;;16.16;100.00
68594;BME280;55563;52.416;13.548;2023-05-23T00:29:13;100734.78;;;16.17;100.00
68594;BME280;55563;52.416;13.548;2023-05-23T00:31:17;100726.53;;;16.04;100.00
68594;BME280;55563;52.416;13.548;2023-05-23T00:33:18;100719.94;;;16.02;100.00
68594;BME280;55563;52.416;13.548;2023-05-23T00:35:22;100724.47;;;16.01;100.00
68594;BME280;55563;52.416;13.548;2023-05-23T00:37:24;100721.41;;;15.94;100.00
68594;BME280;55563;52.416;13.548;2023-05-23T00:39:27;100710.59;;;15.91;100.00
68594;BME280;55563;52.416;13.548;2023-05-23T00:41:28;100715.72;;;15.87;100.00
68594;BME280;55563;52.416;13.548;2023-05-23T00:43:32;100713.34;;;15.86;100.00
68594;BME280;55563;52.416;13.548;2023-05-23T00:45:34;100717.22;;;15.75;100.00
68594;BME280;55563;52.416;13.548;2023-05-23T00:47:35;100708.22;;;15.76;100.00
68594;BME280;55563;52.416;13.548;2023-05-23T00:49:38;100716.16;;;15.76;100.00
68594;BME280;55563;52.416;13.548;2023-05-23T00:51:40;100711.44;;;15.73;100.00
68594;BME280;55563;52.416;13.548;2023-05-23T00:53:42;100707.06;;;15.82;100.00
68594;BME280;55563;52.416;13.548;2023-05-23T00:55:44;100704.06;;;15.69;100.00
68594;BME280;55563;52.416;13.548;2023-05-23T00:57:45;100701.22;;;15.66;100.00
68594;BME280;55563;52.416;13.548;2023-05-23T00:59:48;100702.56;;;15.63;100.00
68594;BME280;55563;52.416;13.548;2023-05-23T01:01:50;100704.94;;;15.65;100.00
68594;BME280;55563;52.416;13.548;2023-05-23T01:03:54;100700.16;;;15.67;100.00
68594;BME280;55563;52.416;13.548;2023-05-23T01:05:56;100693.06;;;15.44;100.00
68594;BME280;55563;52.416;13.548;2023-05-23T01:07:58;100687.53;;;15.59;100.00
68594;BME280;55563;52.416;13.548;2023-05-23T01:10:03;100687.19;;;15.47;100.00
68594;BME280;55563;52.416;13.548;2023-05-23T01:14:35;100685.75;;;15.36;100.00
68594;BME280;55563;52.416;13.548;2023-05-23T01:16:47;100684.63;;;15.23;100.00
68594;BME280;55563;52.416;13.548;2023-05-23T01:19:06;100679.28;;;15.28;100.00
68594;BME280;55563;52.416;13.548;2023-05-23T01:21:16;100679.75;;;15.30;100.00
68594;BME280;55563;52.416;13.548;2023-05-23T01:28:51;100678.81;;;15.40;100.00
68594;BME280;55563;52.416;13.548;2023-05-23T01:30:57;100675.88;;;15.41;100.00
68594;BME280;55563;52.416;13.548;2023-05-23T01:33:00;100673.50;;;15.40;100.00
68594;BME280;55563;52.416;13.548;2023-05-23T01:35:02;100673.50;;;15.40;100.00
68594;BME280;55563;52.416;13.548;2023-05-23T01:37:07;100677.25;;;15.39;100.00
68594;BME280;55563;52.416;13.548;2023-05-23T01:39:10;100678.72;;;15.45;100.00
68594;BME280;55563;52.416;13.548;2023-05-23T01:41:12;100677.47;;;15.42;100.00
68594;BME280;55563;52.416;13.548;2023-05-23T01:43:13;100674.03;;;15.42;100.00
68594;BME280;55563;52.416;13.548;2023-05-23T01:45:17;100671.56;;;15.45;100.00
68594;BME280;55563;52.416;13.548;2023-05-23T01:47:20;100671.75;;;15.54;100.00
68594;BME280;55563;52.416;13.548;2023-05-23T01:49:22;100668.50;;;15.57;100.00
68594;BME280;55563;52.416;13.548;2023-05-23T01:51:27;100666.78;;;15.47;100.00
68594;BME280;55563;52.416;13.548;2023-05-23T01:53:31;100662.84;;;15.45;100.00
68594;BME280;55563;52.416;13.548;2023-05-23T01:55:33;100659.19;;;15.41;100.00
68594;BME280;55563;52.416;13.548;2023-05-23T01:57:35;100654.78;;;15.36;100.00
68594;BME280;55563;52.416;13.548;2023-05-23T01:59:36;100656.94;;;15.34;100.00
68594;BME280;55563;52.416;13.548;2023-05-23T02:01:39;100655.63;;;15.32;100.00
68594;BME280;55563;52.416;13.548;2023-05-23T02:03:41;100656.84;;;15.39;100.00
68594;BME280;55563;52.416;13.548;2023-05-23T02:05:42;100656.53;;;15.41;100.00
68594;BME280;55563;52.416;13.548;2023-05-23T02:07:43;100647.81;;;15.40;100.00
68594;BME280;55563;52.416;13.548;2023-05-23T02:09:44;100652.03;;;15.41;100.00
68594;BME280;55563;52.416;13.548;2023-05-23T02:11:47;100653.69;;;15.37;100.00
68594;BME280;55563;52.416;13.548;2023-05-23T02:13:48;100652.56;;;15.43;100.00
68594;BME280;55563;52.416;13.548;2023-05-23T02:15:49;100654.13;;;15.44;100.00
68594;BME280;55563;52.416;13.548;2023-05-23T02:17:51;100651.97;;;15.46;100.00
68594;BME280;55563;52.416;13.548;2023-05-23T02:19:52;100663.53;;;15.50;100.00
68594;BME280;55563;52.416;13.548;2023-05-23T02:21:55;100658.13;;;15.42;100.00
68594;BME280;55563;52.416;13.548;2023-05-23T02:23:57;100659.72;;;15.43;100.00
68594;BME280;55563;52.416;13.548;2023-05-23T02:25:59;100664.41;;;15.46;100.00
68594;BME280;55563;52.416;13.548;2023-05-23T02:28:01;100662.84;;;15.45;100.00
68594;BME280;55563;52.416;13.548;2023-05-23T02:30:02;100662.50;;;15.51;100.00
68594;BME280;55563;52.416;13.548;2023-05-23T02:32:06;100662.06;;;15.44;100.00
68594;BME280;55563;52.416;13.548;2023-05-23T02:34:07;100655.28;;;15.38;100.00
68594;BME280;55563;52.416;13.548;2023-05-23T02:36:08;100656.63;;;15.36;100.00
68594;BME280;55563;52.416;13.548;2023-05-23T02:38:11;100648.75;;;15.31;100.00
68594;BME280;55563;52.416;13.548;2023-05-23T02:40:16;100645.91;;;15.27;100.00
68594;BME280;55563;52.416;13.548;2023-05-23T02:42:18;100650.63;;;15.30;100.00
68594;BME280;55563;52.416;13.548;2023-05-23T02:44:20;100650.06;;;15.33;100.00
68594;BME280;55563;52.416;13.548;2023-05-23T02:46:21;100644.38;;;15.40;100.00
68594;BME280;55563;52.416;13.548;2023-05-23T02:48:23;100649.78;;;15.35;100.00
68594;BME280;55563;52.416;13.548;2023-05-23T02:50:25;100643.19;;;15.32;100.00
68594;BME280;55563;52.416;13.548;2023-05-23T02:52:25;100643.53;;;15.25;100.00
68594;BME280;55563;52.416;13.548;2023-05-23T02:54:28;100642.78;;;15.25;100.00
68594;BME280;55563;52.416;13.548;2023-05-23T02:56:30;100639.34;;;15.24;100.00
68594;BME280;55563;52.416;13.548;2023-05-23T02:58:30;100631.56;;;15.14;100.00
68594;BME280;55563;52.416;13.548;2023-05-23T03:00:32;100640.81;;;15.31;100.00
68594;BME280;55563;52.416;13.548;2023-05-23T03:02:34;100645.16;;;15.40;100.00
68594;BME280;55563;52.416;13.548;2023-05-23T03:04:35;100647.81;;;15.40;100.00
68594;BME280;55563;52.416;13.548;2023-05-23T03:06:38;100642.94;;;15.15;100.00
68594;BME280;55563;52.416;13.548;2023-05-23T03:08:40;100637.22;;;15.40;100.00
68594;BME280;55563;52.416;13.548;2023-05-23T03:10:42;100638.75;;;15.27;100.00
68594;BME280;55563;52.416;13.548;2023-05-23T03:12:45;100649.38;;;15.41;100.00
68594;BME280;55563;52.416;13.548;2023-05-23T03:14:48;100651.97;;;15.46;100.00
68594;BME280;55563;52.416;13.548;2023-05-23T03:16:49;100657.13;;;15.56;100.00
68594;BME280;55563;52.416;13.548;2023-05-23T03:18:50;100650.38;;;15.45;100.00
68594;BME280;55563;52.416;13.548;2023-05-23T03:20:52;100646.25;;;15.39;100.00
68594;BME280;55563;52.416;13.548;2023-05-23T03:22:56;100658.56;;;15.49;100.00
68594;BME280;55563;52.416;13.548;2023-05-23T03:24:58;100663.28;;;15.52;100.00
68594;BME280;55563;52.416;13.548;2023-05-23T03:27:00;100662.63;;;15.60;100.00
68594;BME280;55563;52.416;13.548;2023-05-23T03:29:01;100670.00;;;15.63;100.00
68594;BME280;55563;52.416;13.548;2023-05-23T03:31:04;100669.69;;;15.64;100.00
68594;BME280;55563;52.416;13.548;2023-05-23T03:33:05;100660.16;;;15.63;100.00
68594;BME280;55563;52.416;13.548;2023-05-23T03:35:08;100661.75;;;15.46;100.00
68594;BME280;55563;52.416;13.548;2023-05-23T03:37:09;100653.69;;;15.37;100.00
68594;BME280;55563;52.416;13.548;2023-05-23T03:39:11;100654.41;;;15.43;100.00
68594;BME280;55563;52.416;13.548;2023-05-23T03:41:14;100660.06;;;15.55;100.00
68594;BME280;55563;52.416;13.548;2023-05-23T03:43:16;100652.03;;;15.41;100.00
68594;BME280;55563;52.416;13.548;2023-05-23T03:45:18;100648.91;;;15.20;100.00
68594;BME280;55563;52.416;13.548;2023-05-23T03:47:19;100648.31;;;15.42;100.00
68594;BME280;55563;52.416;13.548;2023-05-23T03:49:21;100651.63;;;15.34;100.00
68594;BME280;55563;52.416;13.548;2023-05-23T03:51:21;100641.25;;;15.38;100.00
68594;BME280;55563;52.416;13.548;2023-05-23T03:53:24;100638.25;;;15.44;100.00
68594;BME280;55563;52.416;13.548;2023-05-23T03:55:25;100638.78;;;15.41;100.00
68594;BME280;55563;52.416;13.548;2023-05-23T03:57:26;100628.19;;;15.41;100.00
68594;BME280;55563;52.416;13.548;2023-05-23T03:59:30;100637.28;;;15.35;100.00
68594;BME280;55563;52.416;13.548;2023-05-23T04:01:32;100619.06;;;15.34;100.00
68594;BME280;55563;52.416;13.548;2023-05-23T04:03:33;100624.66;;;15.32;100.00
68594;BME280;55563;52.416;13.548;2023-05-23T04:05:37;100616.97;;;15.31;100.00
68594;BME280;55563;52.416;13.548;2023-05-23T04:07:38;100619.44;;;15.27;100.00
68594;BME280;55563;52.416;13.548;2023-05-23T04:09:41;100610.78;;;15.21;100.00
68594;BME280;55563;52.416;13.548;2023-05-23T04:11:44;100610.06;;;15.16;100.00
68594;BME280;55563;52.416;13.548;2023-05-23T04:13:45;100613.22;;;15.18;100.00
68594;BME280;55563;52.416;13.548;2023-05-23T04:15:46;100620.09;;;15.19;100.00
68594;BME280;55563;52.416;13.548;2023-05-23T04:17:48;100627.13;;;15.10;100.00
68594;BME280;55563;52.416;13.548;2023-05-23T04:19:51;100634.31;;;15.23;100.00
68594;BME280;55563;52.416;13.548;2023-05-23T04:21:54;100643.34;;;15.22;100.00
68594;BME280;55563;52.416;13.548;2023-05-23T04:23:55;100646.28;;;15.20;100.00
68594;BME280;55563;52.416;13.548;2023-05-23T04:25:56;100655.63;;;15.32;100.00
68594;BME280;55563;52.416;13.548;2023-05-23T04:28:00;100656.53;;;15.41;100.00
68594;BME280;55563;52.416;13.548;2023-05-23T04:30:02;100655.13;;;15.48;100.00
68594;BME280;55563;52.416;13.548;2023-05-23T04:32:06;100662.69;;;15.55;100.00
68594;BME280;55563;52.416;13.548;2023-05-23T04:34:08;100654.97;;;15.58;100.00
68594;BME280;55563;52.416;13.548;2023-05-23T04:36:14;100653.78;;;15.51;100.00
68594;BME280;55563;52.416;13.548;2023-05-23T04:38:20;100653.00;;;15.32;100.00
68594;BME280;55563;52.416;13.548;2023-05-23T04:40:22;100637.44;;;15.44;100.00
68594;BME280;55563;52.416;13.548;2023-05-23T04:42:36;100642.22;;;15.09;100.00
68594;BME280;55563;52.416;13.548;2023-05-23T04:44:48;100645.00;;;15.18;100.00
68594;BME280;55563;52.416;13.548;2023-05-23T04:46:55;100642.94;;;15.47;100.00
68594;BME280;55563;52.416;13.548;2023-05-23T04:49:02;100637.44;;;15.44;100.00
68594;BME280;55563;52.416;13.548;2023-05-23T04:51:03;100633.03;;;15.39;100.00
68594;BME280;55563;52.416;13.548;2023-05-23T04:53:08;100622.97;;;15.36;100.00
68594;BME280;55563;52.416;13.548;2023-05-23T04:55:11;100628.69;;;15.30;100.00
68594;BME280;55563;52.416;13.548;2023-05-23T04:57:12;100623.38;;;15.30;100.00
68594;BME280;55563;52.416;13.548;2023-05-23T04:59:15;100624.28;;;15.39;100.00
68594;BME280;55563;52.416;13.548;2023-05-23T05:01:17;100624.56;;;15.37;100.00
68594;BME280;55563;52.416;13.548;2023-05-23T05:03:18;100624.13;;;15.49;100.00
68594;BME280;55563;52.416;13.548;2023-05-23T05:05:20;100632.50;;;15.56;100.00
68594;BME280;55563;52.416;13.548;2023-05-23T05:07:28;100644.16;;;15.55;100.00
68594;BME280;55563;52.416;13.548;2023-05-23T05:09:30;100640.34;;;15.61;100.00
68594;BME280;55563;52.416;13.548;2023-05-23T05:11:31;100634.47;;;15.64;100.00
68594;BME280;55563;52.416;13.548;2023-05-23T05:13:33;100644.28;;;15.63;100.00
68594;BME280;55563;52.416;13.548;2023-05-23T05:15:35;100638.69;;;15.65;100.00
68594;BME280;55563;52.416;13.548;2023-05-23T05:17:37;100628.75;;;15.24;100.00
68594;BME280;55563;52.416;13.548;2023-05-23T05:19:42;100628.97;;;15.09;100.00
68594;BME280;55563;52.416;13.548;2023-05-23T05:21:44;100627.09;;;15.28;100.00
68594;BME280;55563;52.416;13.548;2023-05-23T05:23:46;100624.28;;;15.39;100.00
68594;BME280;55563;52.416;13.548;2023-05-23T05:25:52;100629.94;;;15.51;100.00
68594;BME280;55563;52.416;13.548;2023-05-23T05:27:53;100620.53;;;15.58;100.00
68594;BME280;55563;52.416;13.548;2023-05-23T05:29:55;100631.34;;;15.62;100.00
68594;BME280;55563;52.416;13.548;2023-05-23T05:32:06;100623.38;;;15.62;100.00
68594;BME280;55563;52.416;13.548;2023-05-23T05:34:10;100634.09;;;15.70;100.00
68594;BME280;55563;52.416;13.548;2023-05-23T05:36:13;100639.41;;;15.70;100.00
68594;BME280;55563;52.416;13.548;2023-05-23T05:38:16;100644.31;;;15.77;100.00
68594;BME280;55563;52.416;13.548;2023-05-23T05:40:17;100646.47;;;15.75;100.00
68594;BME280;55563;52.416;13.548;2023-05-23T05:42:20;100648.84;;;15.77;100.00
68594;BME280;55563;52.416;13.548;2023-05-23T05:44:22;100646.75;;;15.74;100.00
68594;BME280;55563;52.416;13.548;2023-05-23T05:46:24;100656.78;;;15.77;100.00
68594;BME280;55563;52.416;13.548;2023-05-23T05:48:28;100649.63;;;15.77;100.00
68594;BME280;55563;52.416;13.548;2023-05-23T05:50:31;100651.56;;;15.72;100.00
68594;BME280;55563;52.416;13.548;2023-05-23T05:52:33;100659.13;;;15.78;100.00
68594;BME280;55563;52.416;13.548;2023-05-23T05:54:39;100662.00;;;15.82;100.00
68594;BME280;55563;52.416;13.548;2023-05-23T05:56:42;100669.94;;;15.82;100.00
68594;BME280;55563;52.416;13.548;2023-05-23T05:58:46;100656.78;;;15.77;100.00
68594;BME280;55563;52.416;13.548;2023-05-23T06:00:50;100666.06;;;15.60;100.00
68594;BME280;55563;52.416;13.548;2023-05-23T06:02:50;100656.38;;;15.69;100.00
68594;BME280;55563;52.416;13.548;2023-05-23T06:05:02;100659.41;;;15.63;100.00
68594;BME280;55563;52.416;13.548;2023-05-23T06:07:04;100665.69;;;15.67;100.00
68594;BME280;55563;52.416;13.548;2023-05-23T06:09:05;100656.28;;;15.42;100.00
68594;BME280;55563;52.416;13.548;2023-05-23T06:11:06;100655.25;;;15.57;100.00
68594;BME280;55563;52.416;13.548;2023-05-23T06:13:07;100653.88;;;15.59;100.00
68594;BME280;55563;52.416;13.548;2023-05-23T06:15:10;100653.50;;;15.66;100.00
68594;BME280;55563;52.416;13.548;2023-05-23T06:17:14;100651.03;;;15.56;100.00
68594;BME280;55563;52.416;13.548;2023-05-23T06:19:15;100644.88;;;15.60;100.00
68594;BME280;55563;52.416;13.548;2023-05-23T06:21:18;100649.28;;;15.65;100.00
68594;BME280;55563;52.416;13.548;2023-05-23T06:23:23;100647.84;;;15.73;100.00
68594;BME280;55563;52.416;13.548;2023-05-23T06:25:24;100644.78;;;15.65;100.00
68594;BME280;55563;52.416;13.548;2023-05-23T06:27:25;100645.16;;;15.59;100.00
68594;BME280;55563;52.416;13.548;2023-05-23T06:29:27;100640.94;;;15.58;100.00
68594;BME280;55563;52.416;13.548;2023-05-23T06:31:29;100638.00;;;15.59;100.00
68594;BME280;55563;52.416;13.548;2023-05-23T06:33:30;100629.31;;;15.86;100.00
68594;BME280;55563;52.416;13.548;2023-05-23T06:35:32;100630.19;;;15.95;100.00
68594;BME280;55563;52.416;13.548;2023-05-23T06:37:35;100629.59;;;15.98;100.00
68594;BME280;55563;52.416;13.548;2023-05-23T06:39:38;100631.88;;;15.91;100.00
68594;BME280;55563;52.416;13.548;2023-05-23T06:41:41;100630.19;;;15.82;100.00
68594;BME280;55563;52.416;13.548;2023-05-23T06:43:44;100637.75;;;15.88;100.00
68594;BME280;55563;52.416;13.548;2023-05-23T06:45:48;100642.66;;;16.08;100.00
68594;BME280;55563;52.416;13.548;2023-05-23T06:47:49;100648.75;;;16.23;100.00
68594;BME280;55563;52.416;13.548;2023-05-23T06:49:52;100649.63;;;16.32;100.00
68594;BME280;55563;52.416;13.548;2023-05-23T06:51:52;100642.44;;;16.46;100.00
68594;BME280;55563;52.416;13.548;2023-05-23T06:53:53;100645.09;;;16.73;100.00
68594;BME280;55563;52.416;13.548;2023-05-23T06:55:57;100656.03;;;16.94;100.00
68594;BME280;55563;52.416;13.548;2023-05-23T06:57:59;100649.25;;;17.02;100.00
68594;BME280;55563;52.416;13.548;2023-05-23T07:00:04;100647.88;;;17.26;100.00
68594;BME280;55563;52.416;13.548;2023-05-23T07:02:10;100655.94;;;17.66;100.00
68594;BME280;55563;52.416;13.548;2023-05-23T07:04:12;100652.03;;;17.94;100.00
68594;BME280;55563;52.416;13.548;2023-05-23T07:06:14;100647.09;;;18.10;100.00
68594;BME280;55563;52.416;13.548;2023-05-23T07:08:16;100646.06;;;17.89;100.00
68594;BME280;55563;52.416;13.548;2023-05-23T07:10:29;100650.00;;;18.00;100.00
68594;BME280;55563;52.416;13.548;2023-05-23T07:12:40;100642.94;;;18.43;100.00
68594;BME280;55563;52.416;13.548;2023-05-23T07:14:41;100647.81;;;18.50;100.00
68594;BME280;55563;52.416;13.548;2023-05-23T07:16:43;100643.47;;;18.62;100.00
68594;BME280;55563;52.416;13.548;2023-05-23T07:18:45;100641.31;;;18.99;100.00
68594;BME280;55563;52.416;13.548;2023-05-23T07:20:45;100641.78;;;19.09;100.00
68594;BME280;55563;52.416;13.548;2023-05-23T07:22:51;100644.75;;;19.16;99.43
68594;BME280;55563;52.416;13.548;2023-05-23T07:24:53;100649.31;;;19.88;98.18
68594;BME280;55563;52.416;13.548;2023-05-23T07:26:58;100643.38;;;19.83;97.27
68594;BME280;55563;52.416;13.548;2023-05-23T07:29:00;100645.69;;;20.31;95.69
68594;BME280;55563;52.416;13.548;2023-05-23T07:31:01;100642.44;;;19.79;92.41
68594;BME280;55563;52.416;13.548;2023-05-23T07:33:05;100636.94;;;20.22;91.39
68594;BME280;55563;52.416;13.548;2023-05-23T07:35:09;100642.88;;;20.57;89.21
68594;BME280;55563;52.416;13.548;2023-05-23T07:37:10;100641.63;;;20.54;90.37
68594;BME280;55563;52.416;13.548;2023-05-23T07:39:16;100636.16;;;20.92;89.03
68594;BME280;55563;52.416;13.548;2023-05-23T07:41:23;100640.81;;;20.33;89.66
68594;BME280;55563;52.416;13.548;2023-05-23T07:43:25;100642.81;;;20.86;89.66
68594;BME280;55563;52.416;13.548;2023-05-23T07:45:30;100638.34;;;20.49;92.67
68594;BME280;55563;52.416;13.548;2023-05-23T07:47:34;100632.25;;;20.69;91.21
68594;BME280;55563;52.416;13.548;2023-05-23T07:49:35;100633.44;;;20.80;93.13
68594;BME280;55563;52.416;13.548;2023-05-23T07:51:36;100634.72;;;20.53;91.06
68594;BME280;55563;52.416;13.548;2023-05-23T07:53:39;100631.50;;;20.39;93.40
68594;BME280;55563;52.416;13.548;2023-05-23T07:55:42;100628.06;;;20.30;90.12
68594;BME280;55563;52.416;13.548;2023-05-23T07:57:45;100627.88;;;20.43;86.22
68594;BME280;55563;52.416;13.548;2023-05-23T07:59:46;100631.91;;;21.45;79.54
68594;BME280;55563;52.416;13.548;2023-05-23T08:01:47;100626.81;;;21.64;76.42
68594;BME280;55563;52.416;13.548;2023-05-23T08:03:52;100630.50;;;21.59;75.05
68594;BME280;55563;52.416;13.548;2023-05-23T08:06:00;100627.56;;;21.97;73.32
68594;BME280;55563;52.416;13.548;2023-05-23T08:08:01;100635.97;;;21.18;73.42
68594;BME280;55563;52.416;13.548;2023-05-23T08:10:06;100649.41;;;22.24;72.44
68594;BME280;55563;52.416;13.548;2023-05-23T08:12:08;100646.03;;;21.90;76.65
68594;BME280;55563;52.416;13.548;2023-05-23T08:14:09;100652.16;;;21.79;72.41
68594;BME280;55563;52.416;13.548;2023-05-23T08:16:24;100654.84;;;21.91;69.97
68594;BME280;55563;52.416;13.548;2023-05-23T08:18:27;100653.16;;;21.74;70.68
68594;BME280;55563;52.416;13.548;2023-05-23T08:20:31;100648.66;;;21.54;73.38
68594;BME280;55563;52.416;13.548;2023-05-23T08:22:34;100656.00;;;22.26;72.04
68594;BME280;55563;52.416;13.548;2023-05-23T08:24:35;100650.34;;;22.80;73.26
68594;BME280;55563;52.416;13.548;2023-05-23T08:26:39;100648.31;;;23.17;69.22
68594;BME280;55563;52.416;13.548;2023-05-23T08:28:43;100646.84;;;23.19;68.49
68594;BME280;55563;52.416;13.548;2023-05-23T08:30:46;100648.88;;;23.38;68.29
68594;BME280;55563;52.416;13.548;2023-05-23T08:32:48;100652.00;;;23.40;66.95
68594;BME280;55563;52.416;13.548;2023-05-23T08:34:50;100653.53;;;23.25;67.93
68594;BME280;55563;52.416;13.548;2023-05-23T08:36:50;100658.03;;;23.65;68.00
68594;BME280;55563;52.416;13.548;2023-05-23T08:38:54;100669.97;;;22.96;65.92
68594;BME280;55563;52.416;13.548;2023-05-23T08:41:04;100664.75;;;22.87;63.69
68594;BME280;55563;52.416;13.548;2023-05-23T08:43:14;100659.69;;;23.26;64.09
68594;BME280;55563;52.416;13.548;2023-05-23T08:45:15;100675.38;;;23.39;63.42
68594;BME280;55563;52.416;13.548;2023-05-23T08:47:19;100670.09;;;23.43;62.77
68594;BME280;55563;52.416;13.548;2023-05-23T08:49:28;100669.56;;;23.37;64.49
68594;BME280;55563;52.416;13.548;2023-05-23T08:51:34;100675.09;;;23.72;63.31
68594;BME280;55563;52.416;13.548;2023-05-23T08:53:44;100676.03;;;22.69;63.14
68594;BME280;55563;52.416;13.548;2023-05-23T08:55:48;100673.81;;;23.11;64.02
68594;BME280;55563;52.416;13.548;2023-05-23T08:57:53;100669.09;;;23.48;63.67
68594;BME280;55563;52.416;13.548;2023-05-23T09:00:07;100674.03;;;22.78;67.76
68594;BME280;55563;52.416;13.548;2023-05-23T09:02:21;100682.16;;;23.21;66.35
68594;BME280;55563;52.416;13.548;2023-05-23T09:04:27;100677.44;;;23.74;65.92
68594;BME280;55563;52.416;13.548;2023-05-23T09:06:33;100687.41;;;23.89;65.55
68594;BME280;55563;52.416;13.548;2023-05-23T09:08:35;100685.41;;;23.55;64.35
68594;BME280;55563;52.416;13.548;2023-05-23T09:10:36;100694.03;;;23.36;64.77
68594;BME280;55563;52.416;13.548;2023-05-23T09:12:40;100691.38;;;23.64;66.01
68594;BME280;55563;52.416;13.548;2023-05-23T09:14:42;100686.94;;;23.56;67.40
68594;BME280;55563;52.416;13.548;2023-05-23T09:16:46;100696.34;;;23.93;67.95
68594;BME280;55563;52.416;13.548;2023-05-23T09:18:50;100697.34;;;23.88;68.18
68594;BME280;55563;52.416;13.548;2023-05-23T09:20:53;100698.22;;;23.77;69.78
68594;BME280;55563;52.416;13.548;2023-05-23T09:22:55;100697.63;;;23.83;75.80
68594;BME280;55563;52.416;13.548;2023-05-23T09:24:56;100692.09;;;23.92;71.40
68594;BME280;55563;52.416;13.548;2023-05-23T09:26:58;100696.25;;;23.74;68.96
68594;BME280;55563;52.416;13.548;2023-05-23T09:29:04;100698.06;;;24.01;72.75
68594;BME280;55563;52.416;13.548;2023-05-23T09:31:07;100699.63;;;24.02;73.01
68594;BME280;55563;52.416;13.548;2023-05-23T09:33:13;100695.09;;;24.38;75.22
68594;BME280;55563;52.416;13.548;2023-05-23T09:35:14;100691.28;;;24.39;74.91
68594;BME280;55563;52.416;13.548;2023-05-23T09:37:16;100693.38;;;24.45;74.23
68594;BME280;55563;52.416;13.548;2023-05-23T09:39:19;100692.72;;;24.52;74.38
68594;BME280;55563;52.416;13.548;2023-05-23T09:41:22;100701.97;;;24.19;74.08
68594;BME280;55563;52.416;13.548;2023-05-23T09:43:27;100700.00;;;24.16;75.04
68594;BME280;55563;52.416;13.548;2023-05-23T09:45:32;100700.84;;;24.36;75.44
68594;BME280;55563;52.416;13.548;2023-05-23T09:47:34;100700.41;;;24.34;76.29
68594;BME280;55563;52.416;13.548;2023-05-23T09:49:37;100707.09;;;24.24;79.64
68594;BME280;55563;52.416;13.548;2023-05-23T09:51:42;100707.94;;;24.44;80.12
68594;BME280;55563;52.416;13.548;2023-05-23T09:53:43;100710.56;;;24.41;82.64
68594;BME280;55563;52.416;13.548;2023-05-23T09:55:50;100707.16;;;23.81;86.93
68594;BME280;55563;52.416;13.548;2023-05-23T09:57:53;100716.28;;;23.36;83.63
68594;BME280;55563;52.416;13.548;2023-05-23T09:59:58;100714.75;;;23.79;85.64
68594;BME280;55563;52.416;13.548;2023-05-23T10:02:02;100710.91;;;24.23;80.14
68594;BME280;55563;52.416;13.548;2023-05-23T10:04:06;100712.03;;;24.22;82.45
68594;BME280;55563;52.416;13.548;2023-05-23T10:06:15;100705.94;;;24.10;78.36
68594;BME280;55563;52.416;13.548;2023-05-23T10:08:23;100716.56;;;23.75;77.57
68594;BME280;55563;52.416;13.548;2023-05-23T10:10:30;100716.38;;;23.52;77.83
68594;BME280;55563;52.416;13.548;2023-05-23T10:12:50;100710.38;;;24.02;76.77
68594;BME280;55563;52.416;13.548;2023-05-23T10:15:03;100711.34;;;24.41;75.55
68594;BME280;55563;52.416;13.548;2023-05-23T10:17:15;100714.66;;;24.69;76.00
68594;BME280;55563;52.416;13.548;2023-05-23T10:19:42;100711.66;;;24.55;77.85
68594;BME280;55563;52.416;13.548;2023-05-23T10:21:52;100719.09;;;24.81;77.12
68594;BME280;55563;52.416;13.548;2023-05-23T10:23:58;100702.25;;;25.00;80.81
68594;BME280;55563;52.416;13.548;2023-05-23T10:26:04;100698.16;;;24.20;86.34
68594;BME280;55563;52.416;13.548;2023-05-23T10:28:06;100703.50;;;23.89;89.17
68594;BME280;55563;52.416;13.548;2023-05-23T10:30:08;100706.97;;;24.05;88.02
68594;BME280;55563;52.416;13.548;2023-05-23T10:32:11;100707.75;;;24.37;90.61
68594;BME280;55563;52.416;13.548;2023-05-23T10:37:00;100714.91;;;23.55;94.88
68594;BME280;55563;52.416;13.548;2023-05-23T10:39:08;100709.66;;;23.89;95.25
68594;BME280;55563;52.416;13.548;2023-05-23T10:41:41;100716.09;;;24.32;95.07